PWSweather.com
Personal Weather Stations
Station Observations
BEEWEATHER
Rutledge, AL 36071

Rutledge, AL 36071

Lat: 31.733099, Lon: -86.354336

Elevation: 420

Station Type: Davis VP2

Latest ConditionsUpdated 2:00:04 PM CST Friday, Feb 15, 2019
Currently Today's Max Today's Min Today's Average
Temperature 69.2°F20.7°C 69.8°F21.0°C 51.0°F10.6°C 56.8°F13.8°C
Dew Point 59.8°F15.4°C 60.4°F15.8°C -46.7°F-43.7°C -16.1°F-26.7°C
Winds 2.0 mph SE3.2 kmh SE 6.0 mph -9.7 kmh - - 1.9 mph 3.1 kmh
Wind Gusts 5.0 mph8.0 kmh 13.0 mph20.9 kmh - -
Humidity 72% 72% 1% 18%
Pressure 29.85 in1010.8 mb 30.01 in1016.3 mb 29.85 in1010.8 mb -
Hour Temp Dew Point Humidity Winds Wind Gusts Pressure Precip Precip Rate Daily Precip Total
02:00 PM 69.2°F20.7°C 59.8°F15.4°C 72% 2.0 mph SE3.2 kmh SE 5.0 mph8.0 kmh 29.85 in1010.8 mb 0.00 in0.0 mm 0.00 in0.0 mm 0.00 in0.0 mm
01:50 PM 69.4°F20.8°C 60.0°F15.6°C 72% 2.0 mph S3.2 kmh S 5.0 mph8.0 kmh 29.86 in1011.2 mb 0.00 in0.0 mm 0.00 in0.0 mm 0.00 in0.0 mm
01:40 PM 69.5°F20.8°C 60.1°F15.6°C 72% 2.0 mph SSE3.2 kmh SSE 6.0 mph9.7 kmh 29.87 in1011.5 mb 0.00 in0.0 mm 0.00 in0.0 mm 0.00 in0.0 mm
01:30 PM 69.8°F21.0°C 60.4°F15.8°C 72% 3.0 mph SSE4.8 kmh SSE 8.0 mph12.9 kmh 29.87 in1011.5 mb 0.00 in0.0 mm 0.00 in0.0 mm 0.00 in0.0 mm
01:20 PM 69.8°F21.0°C 60.4°F15.8°C 72% 2.0 mph S3.2 kmh S 5.0 mph8.0 kmh 29.86 in1011.2 mb 0.00 in0.0 mm 0.00 in0.0 mm 0.00 in0.0 mm
01:10 PM 69.6°F20.9°C 60.2°F15.7°C 72% 3.0 mph S4.8 kmh S 6.0 mph9.7 kmh 29.87 in1011.5 mb 0.00 in0.0 mm 0.00 in0.0 mm 0.00 in0.0 mm
01:00 PM 69.5°F20.8°C 60.1°F15.6°C 72% 3.0 mph S4.8 kmh S 9.0 mph14.5 kmh 29.88 in1011.9 mb 0.00 in0.0 mm 0.00 in0.0 mm 0.00 in0.0 mm
12:50 PM 69.4°F20.8°C 60.0°F15.6°C 72% 6.0 mph S9.7 kmh S 13.0 mph20.9 kmh 29.89 in1012.2 mb 0.00 in0.0 mm 0.00 in0.0 mm 0.00 in0.0 mm
12:40 PM 69.3°F20.7°C 59.5°F15.3°C 71% 4.0 mph SSE6.4 kmh SSE 10.0 mph16.1 kmh 29.90 in1012.5 mb 0.00 in0.0 mm 0.00 in0.0 mm 0.00 in0.0 mm
12:30 PM 69.0°F20.6°C 58.8°F14.9°C 70% 4.0 mph SSE6.4 kmh SSE 11.0 mph17.7 kmh 29.89 in1012.2 mb 0.00 in0.0 mm 0.00 in0.0 mm 0.00 in0.0 mm
12:20 PM 68.3°F20.2°C 58.1°F14.5°C 70% 4.0 mph SSE6.4 kmh SSE 10.0 mph16.1 kmh 29.90 in1012.5 mb 0.00 in0.0 mm 0.00 in0.0 mm 0.00 in0.0 mm
12:00 PM 67.7°F19.8°C 56.8°F13.8°C 68% 3.0 mph S4.8 kmh S 10.0 mph16.1 kmh 29.93 in1013.5 mb 0.00 in0.0 mm 0.00 in0.0 mm 0.00 in0.0 mm
11:50 AM 67.6°F19.8°C 57.1°F13.9°C 69% 3.0 mph S4.8 kmh S 8.0 mph12.9 kmh 29.94 in1013.9 mb 0.00 in0.0 mm 0.00 in0.0 mm 0.00 in0.0 mm
11:40 AM 67.4°F19.7°C 56.9°F13.8°C 69% 4.0 mph SW6.4 kmh SW 9.0 mph14.5 kmh 29.95 in1014.2 mb 0.00 in0.0 mm 0.00 in0.0 mm 0.00 in0.0 mm
11:00 AM 66.6°F19.2°C 54.5°F12.5°C 65% 3.0 mph SSW4.8 kmh SSW 7.0 mph11.3 kmh 29.96 in1014.6 mb 0.00 in0.0 mm 0.00 in0.0 mm 0.00 in0.0 mm
10:10 AM 64.2°F17.9°C 46.7°F8.2°C 53% 3.0 mph S4.8 kmh S 8.0 mph12.9 kmh 29.96 in1014.6 mb 0.00 in0.0 mm 0.00 in0.0 mm 0.00 in0.0 mm
09:20 AM 59.7°F15.4°C -41.5°F-40.8°C 1% 2.0 mph SSE3.2 kmh SSE 5.0 mph8.0 kmh 29.97 in1014.9 mb 0.00 in0.0 mm 0.00 in0.0 mm 0.00 in0.0 mm
09:10 AM 59.2°F15.1°C -41.8°F-41.0°C 1% 3.0 mph SSE4.8 kmh SSE 8.0 mph12.9 kmh 29.97 in1014.9 mb 0.00 in0.0 mm 0.00 in0.0 mm 0.00 in0.0 mm
09:00 AM 58.6°F14.8°C -42.2°F-41.2°C 1% 2.0 mph SSE3.2 kmh SSE 5.0 mph8.0 kmh 29.97 in1014.9 mb 0.00 in0.0 mm 0.00 in0.0 mm 0.00 in0.0 mm
08:50 AM 58.1°F14.5°C -42.5°F-41.4°C 1% 2.0 mph SE3.2 kmh SE 4.0 mph6.4 kmh 29.98 in1015.2 mb 0.00 in0.0 mm 0.00 in0.0 mm 0.00 in0.0 mm
08:40 AM 57.4°F14.1°C -42.9°F-41.6°C 1% 2.0 mph SSE3.2 kmh SSE 5.0 mph8.0 kmh 29.97 in1014.9 mb 0.00 in0.0 mm 0.00 in0.0 mm 0.00 in0.0 mm
08:30 AM 56.9°F13.8°C -43.2°F-41.8°C 1% 1.0 mph SE1.6 kmh SE 3.0 mph4.8 kmh 29.97 in1014.9 mb 0.00 in0.0 mm 0.00 in0.0 mm 0.00 in0.0 mm
08:20 AM 56.5°F13.6°C -43.5°F-41.9°C 1% 1.0 mph SE1.6 kmh SE 3.0 mph4.8 kmh 29.98 in1015.2 mb 0.00 in0.0 mm 0.00 in0.0 mm 0.00 in0.0 mm
08:10 AM 56.1°F13.4°C -43.7°F-42.1°C 1% 1.0 mph SE1.6 kmh SE 3.0 mph4.8 kmh 29.96 in1014.6 mb 0.00 in0.0 mm 0.00 in0.0 mm 0.00 in0.0 mm
08:00 AM 55.9°F13.3°C -43.8°F-42.1°C 1% 1.0 mph SE1.6 kmh SE 3.0 mph4.8 kmh 29.97 in1014.9 mb 0.00 in0.0 mm 0.00 in0.0 mm 0.00 in0.0 mm
07:50 AM 55.6°F13.1°C -44.0°F-42.2°C 1% 1.0 mph SSE1.6 kmh SSE 3.0 mph4.8 kmh 29.96 in1014.6 mb 0.00 in0.0 mm 0.00 in0.0 mm 0.00 in0.0 mm
07:40 AM 55.3°F12.9°C -44.2°F-42.3°C 1% 2.0 mph SSE3.2 kmh SSE 4.0 mph6.4 kmh 29.95 in1014.2 mb 0.00 in0.0 mm 0.00 in0.0 mm 0.00 in0.0 mm
07:30 AM 55.0°F12.8°C -44.4°F-42.4°C 1% 1.0 mph SSE1.6 kmh SSE 3.0 mph4.8 kmh 29.96 in1014.6 mb 0.00 in0.0 mm 0.00 in0.0 mm 0.00 in0.0 mm
07:20 AM 54.6°F12.6°C -44.6°F-42.6°C 1% 2.0 mph SSE3.2 kmh SSE 3.0 mph4.8 kmh 29.95 in1014.2 mb 0.00 in0.0 mm 0.00 in0.0 mm 0.00 in0.0 mm
07:10 AM 54.4°F12.4°C -44.7°F-42.6°C 1% 2.0 mph SSE3.2 kmh SSE 3.0 mph4.8 kmh 29.95 in1014.2 mb 0.00 in0.0 mm 0.00 in0.0 mm 0.00 in0.0 mm
07:00 AM 54.1°F12.3°C -44.9°F-42.7°C 1% 1.0 mph S1.6 kmh S 3.0 mph4.8 kmh 29.95 in1014.2 mb 0.00 in0.0 mm 0.00 in0.0 mm 0.00 in0.0 mm
06:50 AM 54.0°F12.2°C -45.0°F-42.8°C 1% 1.0 mph S1.6 kmh S 2.0 mph3.2 kmh 29.96 in1014.6 mb 0.00 in0.0 mm 0.00 in0.0 mm 0.00 in0.0 mm
06:40 AM 53.8°F12.1°C -45.1°F-42.8°C 1% 1.0 mph S1.6 kmh S 3.0 mph4.8 kmh 29.96 in1014.6 mb 0.00 in0.0 mm 0.00 in0.0 mm 0.00 in0.0 mm
06:30 AM 53.6°F12.0°C -45.2°F-42.9°C 1% 1.0 mph S1.6 kmh S 5.0 mph8.0 kmh 29.95 in1014.2 mb 0.00 in0.0 mm 0.00 in0.0 mm 0.00 in0.0 mm
06:20 AM 53.4°F11.9°C -45.4°F-43.0°C 1% 2.0 mph SSE3.2 kmh SSE 7.0 mph11.3 kmh 29.94 in1013.9 mb 0.00 in0.0 mm 0.00 in0.0 mm 0.00 in0.0 mm
06:10 AM 53.3°F11.8°C -45.4°F-43.0°C 1% 2.0 mph SSE3.2 kmh SSE 5.0 mph8.0 kmh 29.94 in1013.9 mb 0.00 in0.0 mm 0.00 in0.0 mm 0.00 in0.0 mm
06:00 AM 53.1°F11.7°C -45.5°F-43.1°C 1% 1.0 mph SE1.6 kmh SE 3.0 mph4.8 kmh 29.95 in1014.2 mb 0.00 in0.0 mm 0.00 in0.0 mm 0.00 in0.0 mm
05:50 AM 52.8°F11.6°C -45.7°F-43.2°C 1% 2.0 mph SSE3.2 kmh SSE 5.0 mph8.0 kmh 29.94 in1013.9 mb 0.00 in0.0 mm 0.00 in0.0 mm 0.00 in0.0 mm
05:40 AM 52.6°F11.4°C -45.9°F-43.3°C 1% 2.0 mph SE3.2 kmh SE 4.0 mph6.4 kmh 29.94 in1013.9 mb 0.00 in0.0 mm 0.00 in0.0 mm 0.00 in0.0 mm
05:30 AM 52.6°F11.4°C -45.9°F-43.3°C 1% 1.0 mph SE1.6 kmh SE 3.0 mph4.8 kmh 29.95 in1014.2 mb 0.00 in0.0 mm 0.00 in0.0 mm 0.00 in0.0 mm
05:20 AM 52.5°F11.4°C -45.9°F-43.3°C 1% 2.0 mph SE3.2 kmh SE 5.0 mph8.0 kmh 29.95 in1014.2 mb 0.00 in0.0 mm 0.00 in0.0 mm 0.00 in0.0 mm
05:10 AM 52.5°F11.4°C -45.9°F-43.3°C 1% 2.0 mph SSE3.2 kmh SSE 3.0 mph4.8 kmh 29.95 in1014.2 mb 0.00 in0.0 mm 0.00 in0.0 mm 0.00 in0.0 mm
05:00 AM 52.5°F11.4°C -45.9°F-43.3°C 1% 2.0 mph SE3.2 kmh SE 4.0 mph6.4 kmh 29.95 in1014.2 mb 0.00 in0.0 mm 0.00 in0.0 mm 0.00 in0.0 mm
04:50 AM 52.4°F11.3°C -46.0°F-43.3°C 1% 2.0 mph SE3.2 kmh SE 4.0 mph6.4 kmh 29.95 in1014.2 mb 0.00 in0.0 mm 0.00 in0.0 mm 0.00 in0.0 mm
04:40 AM 52.2°F11.2°C -46.1°F-43.4°C 1% 2.0 mph SE3.2 kmh SE 4.0 mph6.4 kmh 29.96 in1014.6 mb 0.00 in0.0 mm 0.00 in0.0 mm 0.00 in0.0 mm
04:30 AM 51.9°F11.1°C -46.3°F-43.5°C 1% 2.0 mph SE3.2 kmh SE 4.0 mph6.4 kmh 29.95 in1014.2 mb 0.00 in0.0 mm 0.00 in0.0 mm 0.00 in0.0 mm
04:20 AM 51.7°F10.9°C -46.4°F-43.6°C 1% 2.0 mph SE3.2 kmh SE 4.0 mph6.4 kmh 29.95 in1014.2 mb 0.00 in0.0 mm 0.00 in0.0 mm 0.00 in0.0 mm
04:10 AM 51.5°F10.8°C -46.5°F-43.6°C 1% 1.0 mph SSE1.6 kmh SSE 3.0 mph4.8 kmh 29.95 in1014.2 mb 0.00 in0.0 mm 0.00 in0.0 mm 0.00 in0.0 mm
04:00 AM 51.7°F10.9°C -46.4°F-43.6°C 1% 1.0 mph SSE1.6 kmh SSE 2.0 mph3.2 kmh 29.95 in1014.2 mb 0.00 in0.0 mm 0.00 in0.0 mm 0.00 in0.0 mm
03:50 AM 51.9°F11.1°C -21.5°F-29.7°C 4% 1.0 mph SSE1.6 kmh SSE 3.0 mph4.8 kmh 29.96 in1014.6 mb 0.00 in0.0 mm 0.00 in0.0 mm 0.00 in0.0 mm
03:40 AM 52.2°F11.2°C -21.3°F-29.6°C 4% 2.0 mph SE3.2 kmh SE 4.0 mph6.4 kmh 29.96 in1014.6 mb 0.00 in0.0 mm 0.00 in0.0 mm 0.00 in0.0 mm
03:30 AM 52.4°F11.3°C -16.8°F-27.1°C 5% 2.0 mph SE3.2 kmh SE 4.0 mph6.4 kmh 29.96 in1014.6 mb 0.00 in0.0 mm 0.00 in0.0 mm 0.00 in0.0 mm
03:20 AM 52.6°F11.4°C -13.0°F-25.0°C 6% 3.0 mph SE4.8 kmh SE 5.0 mph8.0 kmh 29.96 in1014.6 mb 0.00 in0.0 mm 0.00 in0.0 mm 0.00 in0.0 mm
03:10 AM 52.7°F11.5°C -4.7°F-20.4°C 9% 3.0 mph SE4.8 kmh SE 5.0 mph8.0 kmh 29.97 in1014.9 mb 0.00 in0.0 mm 0.00 in0.0 mm 0.00 in0.0 mm
03:00 AM 53.0°F11.7°C -4.5°F-20.3°C 9% 3.0 mph SE4.8 kmh SE 7.0 mph11.3 kmh 29.97 in1014.9 mb 0.00 in0.0 mm 0.00 in0.0 mm 0.00 in0.0 mm
02:50 AM 53.1°F11.7°C -16.3°F-26.8°C 5% 3.0 mph SE4.8 kmh SE 5.0 mph8.0 kmh 29.98 in1015.2 mb 0.00 in0.0 mm 0.00 in0.0 mm 0.00 in0.0 mm
02:40 AM 53.1°F11.7°C -26.1°F-32.3°C 3% 2.0 mph SE3.2 kmh SE 4.0 mph6.4 kmh 29.98 in1015.2 mb 0.00 in0.0 mm 0.00 in0.0 mm 0.00 in0.0 mm
02:30 AM 53.0°F11.7°C -33.6°F-36.4°C 2% 3.0 mph SE4.8 kmh SE 5.0 mph8.0 kmh 29.98 in1015.2 mb 0.00 in0.0 mm 0.00 in0.0 mm 0.00 in0.0 mm
02:20 AM 53.0°F11.7°C -45.6°F-43.1°C 1% 2.0 mph SE3.2 kmh SE 4.0 mph6.4 kmh 29.99 in1015.6 mb 0.00 in0.0 mm 0.00 in0.0 mm 0.00 in0.0 mm
02:10 AM 53.0°F11.7°C -45.6°F-43.1°C 1% 1.0 mph SE1.6 kmh SE 4.0 mph6.4 kmh 29.99 in1015.6 mb 0.00 in0.0 mm 0.00 in0.0 mm 0.00 in0.0 mm
02:00 AM 52.8°F11.6°C -45.7°F-43.2°C 1% Calm Calm -- 30.00 in1015.9 mb 0.00 in0.0 mm 0.00 in0.0 mm 0.00 in0.0 mm
01:50 AM 52.9°F11.6°C -45.7°F-43.2°C 1% Calm Calm 1.0 mph1.6 kmh 30.01 in1016.3 mb 0.00 in0.0 mm 0.00 in0.0 mm 0.00 in0.0 mm
01:40 AM 52.8°F11.6°C -45.7°F-43.2°C 1% 1.0 mph SSE1.6 kmh SSE 3.0 mph4.8 kmh 30.01 in1016.3 mb 0.00 in0.0 mm 0.00 in0.0 mm 0.00 in0.0 mm
01:30 AM 52.6°F11.4°C -45.9°F-43.3°C 1% 1.0 mph SSE1.6 kmh SSE 2.0 mph3.2 kmh 30.00 in1015.9 mb 0.00 in0.0 mm 0.00 in0.0 mm 0.00 in0.0 mm
01:20 AM 52.2°F11.2°C -46.1°F-43.4°C 1% 1.0 mph SSE1.6 kmh SSE 4.0 mph6.4 kmh 30.01 in1016.3 mb 0.00 in0.0 mm 0.00 in0.0 mm 0.00 in0.0 mm
01:10 AM 51.9°F11.1°C -46.3°F-43.5°C 1% 1.0 mph SE1.6 kmh SE 3.0 mph4.8 kmh 30.01 in1016.3 mb 0.00 in0.0 mm 0.00 in0.0 mm 0.00 in0.0 mm
01:00 AM 51.6°F10.9°C -46.5°F-43.6°C 1% 1.0 mph SE1.6 kmh SE 3.0 mph4.8 kmh 30.01 in1016.3 mb 0.00 in0.0 mm 0.00 in0.0 mm 0.00 in0.0 mm
12:50 AM 51.2°F10.7°C -46.7°F-43.7°C 1% 1.0 mph SE1.6 kmh SE 2.0 mph3.2 kmh 30.00 in1015.9 mb 0.00 in0.0 mm 0.00 in0.0 mm 0.00 in0.0 mm
12:40 AM 51.2°F10.7°C -46.7°F-43.7°C 1% 1.0 mph SE1.6 kmh SE 2.0 mph3.2 kmh 30.00 in1015.9 mb 0.00 in0.0 mm 0.00 in0.0 mm 0.00 in0.0 mm
12:30 AM 51.0°F10.6°C -11.1°F-23.9°C 7% 1.0 mph SE1.6 kmh SE 2.0 mph3.2 kmh 30.00 in1015.9 mb 0.00 in0.0 mm 0.00 in0.0 mm 0.00 in0.0 mm
12:20 AM 51.2°F10.7°C 14.6°F-9.7°C 23% 1.0 mph SE1.6 kmh SE 2.0 mph3.2 kmh 30.00 in1015.9 mb 0.00 in0.0 mm 0.00 in0.0 mm 0.00 in0.0 mm
12:10 AM 51.9°F11.1°C 16.2°F-8.8°C 24% 1.0 mph SE1.6 kmh SE 3.0 mph4.8 kmh 29.99 in1015.6 mb 0.00 in0.0 mm 0.00 in0.0 mm 0.00 in0.0 mm
12:00 AM 52.4°F11.3°C 17.6°F-8.0°C 25% 2.0 mph SE3.2 kmh SE 3.0 mph4.8 kmh 29.99 in1015.6 mb 0.00 in0.0 mm 0.00 in0.0 mm 0.00 in0.0 mm